sensor_id;sensor_type;location;lat;lon;timestamp;pressure;altitude;pressure_sealevel;temperature;humidity
47220;BME280;32961;51.936;4.788;2023-03-03T00:01:00;102534.50;;;1.22;98.79
47220;BME280;32961;51.936;4.788;2023-03-03T00:03:28;102534.53;;;1.21;99.41
47220;BME280;32961;51.936;4.788;2023-03-03T00:05:56;102525.66;;;1.19;98.77
47220;BME280;32961;51.936;4.788;2023-03-03T00:08:25;102530.19;;;1.17;99.25
47220;BME280;32961;51.936;4.788;2023-03-03T00:10:53;102524.88;;;1.15;99.43
47220;BME280;32961;51.936;4.788;2023-03-03T00:13:24;102525.81;;;1.14;98.71
47220;BME280;32961;51.936;4.788;2023-03-03T00:15:53;102532.03;;;1.15;99.59
47220;BME280;32961;51.936;4.788;2023-03-03T00:18:34;102533.03;;;1.10;98.96
47220;BME280;32961;51.936;4.788;2023-03-03T00:21:14;102528.63;;;1.08;98.82
47220;BME280;32961;51.936;4.788;2023-03-03T00:23:45;102536.66;;;1.08;98.35
47220;BME280;32961;51.936;4.788;2023-03-03T00:26:19;102537.56;;;1.08;98.35
47220;BME280;32961;51.936;4.788;2023-03-03T00:28:51;102531.31;;;1.08;98.27
47220;BME280;32961;51.936;4.788;2023-03-03T00:31:28;102534.03;;;1.06;98.30
47220;BME280;32961;51.936;4.788;2023-03-03T00:34:01;102540.28;;;1.07;98.39
47220;BME280;32961;51.936;4.788;2023-03-03T00:36:35;102542.00;;;1.08;98.79
47220;BME280;32961;51.936;4.788;2023-03-03T00:39:17;102536.75;;;1.05;98.35
47220;BME280;32961;51.936;4.788;2023-03-03T00:41:45;102539.38;;;1.06;98.29
47220;BME280;32961;51.936;4.788;2023-03-03T00:44:45;102538.56;;;1.04;98.71
47220;BME280;32961;51.936;4.788;2023-03-03T00:47:24;102529.69;;;1.02;99.46
47220;BME280;32961;51.936;4.788;2023-03-03T00:50:17;102533.16;;;1.06;98.68
47220;BME280;32961;51.936;4.788;2023-03-03T00:52:55;102533.16;;;1.06;98.93
47220;BME280;32961;51.936;4.788;2023-03-03T00:55:26;102532.25;;;1.07;99.19
47220;BME280;32961;51.936;4.788;2023-03-03T00:57:54;102532.19;;;1.08;99.38
47220;BME280;32961;51.936;4.788;2023-03-03T01:00:23;102536.63;;;1.09;98.86
47220;BME280;32961;51.936;4.788;2023-03-03T01:02:51;102534.94;;;1.05;99.33
47220;BME280;32961;51.936;4.788;2023-03-03T01:05:21;102535.03;;;1.02;98.79
47220;BME280;32961;51.936;4.788;2023-03-03T01:07:49;102534.16;;;1.02;99.64
47220;BME280;32961;51.936;4.788;2023-03-03T01:10:16;102532.31;;;1.04;99.49
47220;BME280;32961;51.936;4.788;2023-03-03T01:12:44;102543.13;;;1.01;99.40
47220;BME280;32961;51.936;4.788;2023-03-03T01:15:13;102532.44;;;0.99;99.41
47220;BME280;32961;51.936;4.788;2023-03-03T01:17:43;102530.66;;;1.00;100.00
47220;BME280;32961;51.936;4.788;2023-03-03T01:20:15;102532.47;;;0.98;99.94
47220;BME280;32961;51.936;4.788;2023-03-03T01:22:43;102534.25;;;0.99;100.00
47220;BME280;32961;51.936;4.788;2023-03-03T01:25:11;102531.63;;;0.97;100.00
47220;BME280;32961;51.936;4.788;2023-03-03T01:27:39;102535.22;;;0.96;100.00
47220;BME280;32961;51.936;4.788;2023-03-03T01:30:07;102526.38;;;0.92;100.00
47220;BME280;32961;51.936;4.788;2023-03-03T01:32:36;102541.53;;;0.93;100.00
47220;BME280;32961;51.936;4.788;2023-03-03T01:35:06;102528.88;;;0.99;100.00
47220;BME280;32961;51.936;4.788;2023-03-03T01:37:34;102529.84;;;0.96;100.00
47220;BME280;32961;51.936;4.788;2023-03-03T01:40:03;102522.75;;;0.95;100.00
47220;BME280;32961;51.936;4.788;2023-03-03T01:42:31;102529.75;;;0.99;100.00
47220;BME280;32961;51.936;4.788;2023-03-03T01:45:16;102528.09;;;0.95;100.00
47220;BME280;32961;51.936;4.788;2023-03-03T01:47:47;102533.41;;;0.96;100.00
47220;BME280;32961;51.936;4.788;2023-03-03T01:53:11;102544.22;;;0.92;100.00
47220;BME280;32961;51.936;4.788;2023-03-03T01:55:40;102538.97;;;0.89;100.00
47220;BME280;32961;51.936;4.788;2023-03-03T01:58:10;102538.00;;;0.91;100.00
47220;BME280;32961;51.936;4.788;2023-03-03T02:00:43;102537.19;;;0.88;100.00
47220;BME280;32961;51.936;4.788;2023-03-03T02:03:13;102535.47;;;0.85;100.00
47220;BME280;32961;51.936;4.788;2023-03-03T02:05:42;102538.22;;;0.82;100.00
47220;BME280;32961;51.936;4.788;2023-03-03T02:08:14;102539.16;;;0.81;100.00
47220;BME280;32961;51.936;4.788;2023-03-03T02:10:43;102538.31;;;0.79;100.00
47220;BME280;32961;51.936;4.788;2023-03-03T02:13:12;102541.00;;;0.79;100.00
47220;BME280;32961;51.936;4.788;2023-03-03T02:15:41;102533.94;;;0.76;100.00
47220;BME280;32961;51.936;4.788;2023-03-03T02:18:10;102533.06;;;0.74;100.00
47220;BME280;32961;51.936;4.788;2023-03-03T02:20:47;102542.06;;;0.72;100.00
47220;BME280;32961;51.936;4.788;2023-03-03T02:23:22;102539.50;;;0.67;100.00
47220;BME280;32961;51.936;4.788;2023-03-03T02:26:04;102552.94;;;0.66;100.00
47220;BME280;32961;51.936;4.788;2023-03-03T02:28:34;102546.78;;;0.62;100.00
47220;BME280;32961;51.936;4.788;2023-03-03T02:31:04;102552.16;;;0.60;100.00
47220;BME280;32961;51.936;4.788;2023-03-03T02:33:32;102537.94;;;0.58;100.00
47220;BME280;32961;51.936;4.788;2023-03-03T02:36:00;102538.03;;;0.55;100.00
47220;BME280;32961;51.936;4.788;2023-03-03T02:38:29;102541.47;;;0.59;100.00
47220;BME280;32961;51.936;4.788;2023-03-03T02:41:07;102538.03;;;0.54;100.00
47220;BME280;32961;51.936;4.788;2023-03-03T02:43:43;102544.34;;;0.51;100.00
47220;BME280;32961;51.936;4.788;2023-03-03T02:46:13;102538.91;;;0.56;100.00
47220;BME280;32961;51.936;4.788;2023-03-03T02:48:40;102535.38;;;0.54;100.00
47220;BME280;32961;51.936;4.788;2023-03-03T02:51:08;102538.94;;;0.54;100.00
47220;BME280;32961;51.936;4.788;2023-03-03T02:53:36;102544.41;;;0.50;100.00
47220;BME280;32961;51.936;4.788;2023-03-03T02:56:06;102539.09;;;0.48;100.00
47220;BME280;32961;51.936;4.788;2023-03-03T02:58:35;102541.69;;;0.51;100.00
47220;BME280;32961;51.936;4.788;2023-03-03T03:01:04;102545.31;;;0.48;100.00
47220;BME280;32961;51.936;4.788;2023-03-03T03:03:32;102545.50;;;0.41;100.00
47220;BME280;32961;51.936;4.788;2023-03-03T03:06:00;102542.03;;;0.37;100.00
47220;BME280;32961;51.936;4.788;2023-03-03T03:08:27;102545.75;;;0.30;100.00
47220;BME280;32961;51.936;4.788;2023-03-03T03:10:55;102539.59;;;0.26;100.00
47220;BME280;32961;51.936;4.788;2023-03-03T03:13:25;102543.28;;;0.21;100.00
47220;BME280;32961;51.936;4.788;2023-03-03T03:15:53;102544.25;;;0.18;100.00
47220;BME280;32961;51.936;4.788;2023-03-03T03:18:21;102543.19;;;0.25;100.00
47220;BME280;32961;51.936;4.788;2023-03-03T03:20:48;102549.53;;;0.21;100.00
47220;BME280;32961;51.936;4.788;2023-03-03T03:23:17;102539.78;;;0.19;100.00
47220;BME280;32961;51.936;4.788;2023-03-03T03:25:47;102542.63;;;0.11;100.00
47220;BME280;32961;51.936;4.788;2023-03-03T03:28:16;102554.94;;;0.18;100.00
47220;BME280;32961;51.936;4.788;2023-03-03T03:30:46;102553.97;;;0.21;100.00
47220;BME280;32961;51.936;4.788;2023-03-03T03:33:14;102552.09;;;0.26;100.00
47220;BME280;32961;51.936;4.788;2023-03-03T03:35:42;102554.75;;;0.27;100.00
47220;BME280;32961;51.936;4.788;2023-03-03T03:38:13;102552.81;;;0.32;100.00
47220;BME280;32961;51.936;4.788;2023-03-03T03:40:41;102559.13;;;0.30;100.00
47220;BME280;32961;51.936;4.788;2023-03-03T03:43:09;102562.81;;;0.26;100.00
47220;BME280;32961;51.936;4.788;2023-03-03T03:45:37;102568.16;;;0.26;100.00
47220;BME280;32961;51.936;4.788;2023-03-03T03:48:07;102559.03;;;0.33;100.00
47220;BME280;32961;51.936;4.788;2023-03-03T03:50:34;102558.28;;;0.28;100.00
47220;BME280;32961;51.936;4.788;2023-03-03T03:53:03;102559.03;;;0.33;100.00
47220;BME280;32961;51.936;4.788;2023-03-03T03:55:31;102560.91;;;0.29;100.00
47220;BME280;32961;51.936;4.788;2023-03-03T03:57:59;102559.13;;;0.30;100.00
47220;BME280;32961;51.936;4.788;2023-03-03T04:00:27;102559.03;;;0.33;100.00
47220;BME280;32961;51.936;4.788;2023-03-03T04:02:54;102559.69;;;0.43;100.00
47220;BME280;32961;51.936;4.788;2023-03-03T04:05:24;102569.50;;;0.44;100.00
47220;BME280;32961;51.936;4.788;2023-03-03T04:07:51;102569.50;;;0.44;100.00
47220;BME280;32961;51.936;4.788;2023-03-03T04:10:19;102575.88;;;0.38;100.00
47220;BME280;32961;51.936;4.788;2023-03-03T04:12:47;102564.22;;;0.41;100.00
47220;BME280;32961;51.936;4.788;2023-03-03T04:15:15;102575.03;;;0.36;100.00
47220;BME280;32961;51.936;4.788;2023-03-03T04:17:42;102577.75;;;0.33;100.00
47220;BME280;32961;51.936;4.788;2023-03-03T04:20:12;102570.69;;;0.30;100.00
47220;BME280;32961;51.936;4.788;2023-03-03T04:22:42;102577.00;;;0.28;100.00
47220;BME280;32961;51.936;4.788;2023-03-03T04:25:12;102571.59;;;0.29;100.00
47220;BME280;32961;51.936;4.788;2023-03-03T04:27:41;102578.72;;;0.30;100.00
47220;BME280;32961;51.936;4.788;2023-03-03T04:30:11;102582.19;;;0.34;100.00
47220;BME280;32961;51.936;4.788;2023-03-03T04:32:39;102576.94;;;0.29;100.00
47220;BME280;32961;51.936;4.788;2023-03-03T04:35:08;102576.84;;;0.34;100.00
47220;BME280;32961;51.936;4.788;2023-03-03T04:37:36;102578.56;;;0.37;100.00
47220;BME280;32961;51.936;4.788;2023-03-03T04:40:08;102580.34;;;0.38;100.00
47220;BME280;32961;51.936;4.788;2023-03-03T04:42:36;102582.13;;;0.37;100.00
47220;BME280;32961;51.936;4.788;2023-03-03T04:45:05;102580.41;;;0.35;100.00
47220;BME280;32961;51.936;4.788;2023-03-03T04:47:33;102581.22;;;0.38;100.00
47220;BME280;32961;51.936;4.788;2023-03-03T04:50:01;102582.91;;;0.42;100.00
47220;BME280;32961;51.936;4.788;2023-03-03T04:52:29;102578.41;;;0.44;100.00
47220;BME280;32961;51.936;4.788;2023-03-03T04:54:57;102587.25;;;0.46;100.00
47220;BME280;32961;51.936;4.788;2023-03-03T04:57:27;102583.53;;;0.54;100.00
47220;BME280;32961;51.936;4.788;2023-03-03T04:59:55;102584.44;;;0.53;100.00
47220;BME280;32961;51.936;4.788;2023-03-03T05:02:23;102584.38;;;0.56;100.00
47220;BME280;32961;51.936;4.788;2023-03-03T05:04:51;102582.50;;;0.59;100.00
47220;BME280;32961;51.936;4.788;2023-03-03T05:07:19;102584.28;;;0.59;100.00
47220;BME280;32961;51.936;4.788;2023-03-03T05:09:47;102588.72;;;0.61;100.00
47220;BME280;32961;51.936;4.788;2023-03-03T05:12:14;102581.75;;;0.54;100.00
47220;BME280;32961;51.936;4.788;2023-03-03T05:14:44;102589.69;;;0.57;100.00
47220;BME280;32961;51.936;4.788;2023-03-03T05:17:11;102587.06;;;0.56;100.00
47220;BME280;32961;51.936;4.788;2023-03-03T05:19:40;102589.56;;;0.62;100.00
47220;BME280;32961;51.936;4.788;2023-03-03T05:22:07;102592.16;;;0.67;100.00
47220;BME280;32961;51.936;4.788;2023-03-03T05:24:35;102587.75;;;0.64;100.00
47220;BME280;32961;51.936;4.788;2023-03-03T05:27:03;102591.34;;;0.63;100.00
47220;BME280;32961;51.936;4.788;2023-03-03T05:29:31;102592.94;;;0.70;100.00
47220;BME280;32961;51.936;4.788;2023-03-03T05:32:00;102593.91;;;0.68;100.00
47220;BME280;32961;51.936;4.788;2023-03-03T05:34:28;102588.41;;;0.72;100.00
47220;BME280;32961;51.936;4.788;2023-03-03T05:36:56;102591.69;;;0.85;100.00
47220;BME280;32961;51.936;4.788;2023-03-03T05:39:24;102595.44;;;0.78;100.00
47220;BME280;32961;51.936;4.788;2023-03-03T05:41:52;102586.63;;;0.73;100.00
47220;BME280;32961;51.936;4.788;2023-03-03T05:44:20;102594.63;;;0.74;100.00
47220;BME280;32961;51.936;4.788;2023-03-03T05:46:48;102588.34;;;0.75;100.00
47220;BME280;32961;51.936;4.788;2023-03-03T05:49:17;102586.50;;;0.79;100.00
47220;BME280;32961;51.936;4.788;2023-03-03T05:51:45;102595.44;;;0.78;100.00
47220;BME280;32961;51.936;4.788;2023-03-03T05:54:13;102589.13;;;0.80;100.00
47220;BME280;32961;51.936;4.788;2023-03-03T05:56:41;102593.44;;;0.86;100.00
47220;BME280;32961;51.936;4.788;2023-03-03T05:59:09;102594.41;;;0.84;100.00
47220;BME280;32961;51.936;4.788;2023-03-03T06:01:36;102594.16;;;0.93;100.00
47220;BME280;32961;51.936;4.788;2023-03-03T06:04:04;102593.44;;;0.86;100.00
47220;BME280;32961;51.936;4.788;2023-03-03T06:06:33;102596.03;;;0.91;100.00
47220;BME280;32961;51.936;4.788;2023-03-03T06:09:02;102590.78;;;0.86;100.00
47220;BME280;32961;51.936;4.788;2023-03-03T06:11:30;102597.84;;;0.89;100.00
47220;BME280;32961;51.936;4.788;2023-03-03T06:13:57;102597.75;;;0.92;100.00
47220;BME280;32961;51.936;4.788;2023-03-03T06:16:25;102597.75;;;0.92;100.00
47220;BME280;32961;51.936;4.788;2023-03-03T06:18:53;102602.13;;;0.96;100.00
47220;BME280;32961;51.936;4.788;2023-03-03T06:21:21;102603.78;;;1.00;100.00
47220;BME280;32961;51.936;4.788;2023-03-03T06:23:50;102605.56;;;1.01;100.00
47220;BME280;32961;51.936;4.788;2023-03-03T06:26:18;102606.41;;;1.03;100.00
47220;BME280;32961;51.936;4.788;2023-03-03T06:28:46;102607.28;;;1.04;100.00
47220;BME280;32961;51.936;4.788;2023-03-03T06:31:15;102618.78;;;1.07;100.00
47220;BME280;32961;51.936;4.788;2023-03-03T06:33:43;102616.16;;;1.06;100.00
47220;BME280;32961;51.936;4.788;2023-03-03T06:36:11;102622.31;;;1.08;100.00
47220;BME280;32961;51.936;4.788;2023-03-03T06:38:39;102620.56;;;1.08;100.00
47220;BME280;32961;51.936;4.788;2023-03-03T06:41:08;102620.44;;;1.11;100.00
47220;BME280;32961;51.936;4.788;2023-03-03T06:43:36;102631.16;;;1.11;100.00
47220;BME280;32961;51.936;4.788;2023-03-03T06:46:04;102640.00;;;1.15;100.00
47220;BME280;32961;51.936;4.788;2023-03-03T06:48:33;102633.69;;;1.18;100.00
47220;BME280;32961;51.936;4.788;2023-03-03T06:51:02;102642.56;;;1.20;100.00
47220;BME280;32961;51.936;4.788;2023-03-03T06:53:37;102637.31;;;1.15;100.00
47220;BME280;32961;51.936;4.788;2023-03-03T06:56:09;102638.13;;;1.19;100.00
47220;BME280;32961;51.936;4.788;2023-03-03T06:58:37;102639.81;;;1.23;100.00
47220;BME280;32961;51.936;4.788;2023-03-03T07:01:14;102643.53;;;1.17;100.00
47220;BME280;32961;51.936;4.788;2023-03-03T07:03:42;102651.44;;;1.22;100.00
47220;BME280;32961;51.936;4.788;2023-03-03T07:06:17;102648.66;;;1.26;100.00
47220;BME280;32961;51.936;4.788;2023-03-03T07:08:47;102653.06;;;1.29;100.00
47220;BME280;32961;51.936;4.788;2023-03-03T07:11:17;102659.22;;;1.31;100.00
47220;BME280;32961;51.936;4.788;2023-03-03T07:13:47;102653.81;;;1.34;100.00
47220;BME280;32961;51.936;4.788;2023-03-03T07:16:18;102651.00;;;1.39;100.00
47220;BME280;32961;51.936;4.788;2023-03-03T07:18:49;102657.25;;;1.39;100.00
47220;BME280;32961;51.936;4.788;2023-03-03T07:21:21;102660.81;;;1.40;100.00
47220;BME280;32961;51.936;4.788;2023-03-03T07:23:50;102659.81;;;1.44;100.00
47220;BME280;32961;51.936;4.788;2023-03-03T07:26:22;102664.28;;;1.43;100.00
47220;BME280;32961;51.936;4.788;2023-03-03T07:28:56;102659.69;;;1.49;100.00
47220;BME280;32961;51.936;4.788;2023-03-03T07:31:35;102661.44;;;1.50;100.00
47220;BME280;32961;51.936;4.788;2023-03-03T07:34:15;102671.16;;;1.54;100.00
47220;BME280;32961;51.936;4.788;2023-03-03T07:36:48;102669.31;;;1.56;100.00
47220;BME280;32961;51.936;4.788;2023-03-03T07:39:30;102674.69;;;1.56;100.00
47220;BME280;32961;51.936;4.788;2023-03-03T07:42:18;102669.31;;;1.56;100.00
47220;BME280;32961;51.936;4.788;2023-03-03T07:44:49;102671.78;;;1.64;100.00
47220;BME280;32961;51.936;4.788;2023-03-03T07:47:20;102674.47;;;1.64;100.00
47220;BME280;32961;51.936;4.788;2023-03-03T07:49:50;102676.28;;;1.63;100.00
47220;BME280;32961;51.936;4.788;2023-03-03T07:52:28;102683.38;;;1.64;100.00
47220;BME280;32961;51.936;4.788;2023-03-03T07:54:57;102678.75;;;1.71;100.00
47220;BME280;32961;51.936;4.788;2023-03-03T07:57:34;102681.63;;;1.63;100.00
47220;BME280;32961;51.936;4.788;2023-03-03T08:03:26;102692.19;;;1.69;100.00
47220;BME280;32961;51.936;4.788;2023-03-03T08:05:53;102693.00;;;1.73;100.00
47220;BME280;32961;51.936;4.788;2023-03-03T08:08:27;102699.22;;;1.73;100.00
47220;BME280;32961;51.936;4.788;2023-03-03T08:10:59;102705.44;;;1.74;100.00
47220;BME280;32961;51.936;4.788;2023-03-03T08:13:35;102701.78;;;1.76;100.00
47220;BME280;32961;51.936;4.788;2023-03-03T08:16:24;102705.31;;;1.79;100.00
47220;BME280;32961;51.936;4.788;2023-03-03T08:18:57;102714.09;;;1.84;100.00
47220;BME280;32961;51.936;4.788;2023-03-03T08:21:32;102714.97;;;1.86;100.00
47220;BME280;32961;51.936;4.788;2023-03-03T08:24:01;102716.59;;;1.91;100.00
47220;BME280;32961;51.936;4.788;2023-03-03T08:26:29;102716.56;;;1.93;100.00
47220;BME280;32961;51.936;4.788;2023-03-03T08:28:58;102723.56;;;1.97;100.00
47220;BME280;32961;51.936;4.788;2023-03-03T08:31:26;102726.94;;;2.05;100.00
47220;BME280;32961;51.936;4.788;2023-03-03T08:34:07;102722.53;;;2.03;100.00
47220;BME280;32961;51.936;4.788;2023-03-03T08:36:35;102724.19;;;2.07;100.00
47220;BME280;32961;51.936;4.788;2023-03-03T08:39:03;102732.22;;;2.08;100.00
47220;BME280;32961;51.936;4.788;2023-03-03T08:41:32;102729.50;;;2.10;100.00
47220;BME280;32961;51.936;4.788;2023-03-03T08:44:01;102725.78;;;2.14;100.00
47220;BME280;32961;51.936;4.788;2023-03-03T08:46:29;102724.94;;;2.14;100.00
47220;BME280;32961;51.936;4.788;2023-03-03T08:48:57;102727.50;;;2.17;100.00
47220;BME280;32961;51.936;4.788;2023-03-03T08:51:25;102725.56;;;2.22;100.00
47220;BME280;32961;51.936;4.788;2023-03-03T08:53:52;102735.38;;;2.23;100.00
47220;BME280;32961;51.936;4.788;2023-03-03T08:56:20;102732.50;;;2.29;100.00
47220;BME280;32961;51.936;4.788;2023-03-03T08:58:48;102735.13;;;2.32;100.00
47220;BME280;32961;51.936;4.788;2023-03-03T09:01:29;102737.81;;;2.32;100.00
47220;BME280;32961;51.936;4.788;2023-03-03T09:03:57;102732.13;;;2.43;100.00
47220;BME280;32961;51.936;4.788;2023-03-03T09:06:25;102733.91;;;2.43;100.00
47220;BME280;32961;51.936;4.788;2023-03-03T09:08:54;102732.00;;;2.48;100.00
47220;BME280;32961;51.936;4.788;2023-03-03T09:11:24;102735.44;;;2.51;100.00
47220;BME280;32961;51.936;4.788;2023-03-03T09:13:58;102730.97;;;2.52;100.00
47220;BME280;32961;51.936;4.788;2023-03-03T09:16:35;102736.34;;;2.52;100.00
47220;BME280;32961;51.936;4.788;2023-03-03T09:19:15;102746.94;;;2.56;100.00
47220;BME280;32961;51.936;4.788;2023-03-03T09:21:46;102736.16;;;2.58;100.00
47220;BME280;32961;51.936;4.788;2023-03-03T09:24:23;102732.38;;;2.65;100.00
47220;BME280;32961;51.936;4.788;2023-03-03T09:26:52;102732.06;;;2.75;100.00
47220;BME280;32961;51.936;4.788;2023-03-03T09:29:25;102733.63;;;2.82;100.00
47220;BME280;32961;51.936;4.788;2023-03-03T09:31:58;102739.91;;;2.82;100.00
47220;BME280;32961;51.936;4.788;2023-03-03T09:34:37;102739.66;;;2.90;100.00
47220;BME280;32961;51.936;4.788;2023-03-03T09:37:25;102734.09;;;2.96;100.00
47220;BME280;32961;51.936;4.788;2023-03-03T09:39:54;102730.00;;;3.13;100.00
47220;BME280;32961;51.936;4.788;2023-03-03T09:42:36;102736.56;;;3.02;100.00
47220;BME280;32961;51.936;4.788;2023-03-03T09:45:24;102740.88;;;3.08;100.00
47220;BME280;32961;51.936;4.788;2023-03-03T09:48:10;102734.34;;;3.17;100.00
47220;BME280;32961;51.936;4.788;2023-03-03T09:50:48;102739.31;;;3.29;100.00
47220;BME280;32961;51.936;4.788;2023-03-03T09:53:32;102739.38;;;3.28;100.00
47220;BME280;32961;51.936;4.788;2023-03-03T09:56:08;102743.53;;;3.36;100.00
47220;BME280;32961;51.936;4.788;2023-03-03T09:58:54;102742.41;;;3.44;100.00
47220;BME280;32961;51.936;4.788;2023-03-03T10:01:38;102729.41;;;3.57;100.00
47220;BME280;32961;51.936;4.788;2023-03-03T10:04:22;102734.56;;;3.64;100.00
47220;BME280;32961;51.936;4.788;2023-03-03T10:06:57;102737.06;;;3.69;100.00
47220;BME280;32961;51.936;4.788;2023-03-03T10:09:43;102745.66;;;3.80;100.00
47220;BME280;32961;51.936;4.788;2023-03-03T10:12:18;102740.94;;;3.87;100.00
47220;BME280;32961;51.936;4.788;2023-03-03T10:15:14;102741.25;;;4.03;100.00
47220;BME280;32961;51.936;4.788;2023-03-03T10:17:48;102742.56;;;4.16;100.00
47220;BME280;32961;51.936;4.788;2023-03-03T10:20:36;102739.38;;;4.30;100.00
47220;BME280;32961;51.936;4.788;2023-03-03T10:23:19;102740.63;;;4.45;100.00
47220;BME280;32961;51.936;4.788;2023-03-03T10:26:04;102736.88;;;4.49;100.00
47220;BME280;32961;51.936;4.788;2023-03-03T10:28:54;102730.25;;;4.58;100.00
47220;BME280;32961;51.936;4.788;2023-03-03T10:31:36;102730.34;;;4.79;100.00
47220;BME280;32961;51.936;4.788;2023-03-03T10:34:19;102730.63;;;4.95;100.00
47220;BME280;32961;51.936;4.788;2023-03-03T10:36:57;102730.44;;;5.00;99.45
47220;BME280;32961;51.936;4.788;2023-03-03T10:39:44;102723.47;;;5.16;99.98
47220;BME280;32961;51.936;4.788;2023-03-03T10:42:25;102730.69;;;5.38;100.00
47220;BME280;32961;51.936;4.788;2023-03-03T10:45:16;102731.91;;;5.51;99.36
47220;BME280;32961;51.936;4.788;2023-03-03T10:47:53;102729.91;;;5.77;97.89
47220;BME280;32961;51.936;4.788;2023-03-03T10:50:32;102731.25;;;5.87;95.90
47220;BME280;32961;51.936;4.788;2023-03-03T10:53:14;102740.41;;;6.05;95.58
47220;BME280;32961;51.936;4.788;2023-03-03T10:55:53;102735.66;;;6.10;91.63
47220;BME280;32961;51.936;4.788;2023-03-03T10:58:41;102731.69;;;6.19;92.15
47220;BME280;32961;51.936;4.788;2023-03-03T11:01:17;102730.25;;;6.31;91.29
47220;BME280;32961;51.936;4.788;2023-03-03T11:04:06;102731.75;;;6.57;90.99
47220;BME280;32961;51.936;4.788;2023-03-03T11:06:45;102730.19;;;6.90;91.66
47220;BME280;32961;51.936;4.788;2023-03-03T11:09:30;102731.06;;;7.10;88.85
47220;BME280;32961;51.936;4.788;2023-03-03T11:12:13;102720.34;;;7.26;85.41
47220;BME280;32961;51.936;4.788;2023-03-03T11:14:46;102724.00;;;7.25;84.65
47220;BME280;32961;51.936;4.788;2023-03-03T11:17:17;102725.44;;;7.32;83.29
47220;BME280;32961;51.936;4.788;2023-03-03T11:19:54;102725.63;;;7.29;80.75
47220;BME280;32961;51.936;4.788;2023-03-03T11:22:33;102726.63;;;6.89;79.16
47220;BME280;32961;51.936;4.788;2023-03-03T11:25:18;102727.72;;;7.04;81.06
47220;BME280;32961;51.936;4.788;2023-03-03T11:28:02;102730.09;;;7.11;80.23
47220;BME280;32961;51.936;4.788;2023-03-03T11:30:52;102734.22;;;7.00;79.73
47220;BME280;32961;51.936;4.788;2023-03-03T11:33:31;102723.84;;;6.91;81.23
47220;BME280;32961;51.936;4.788;2023-03-03T11:36:08;102724.06;;;7.05;80.13
47220;BME280;32961;51.936;4.788;2023-03-03T11:38:44;102725.56;;;7.11;78.72
47220;BME280;32961;51.936;4.788;2023-03-03T11:41:22;102724.63;;;7.12;79.77
47220;BME280;32961;51.936;4.788;2023-03-03T11:43:56;102720.75;;;7.18;79.11
47220;BME280;32961;51.936;4.788;2023-03-03T11:46:29;102713.97;;;7.09;78.67
47220;BME280;32961;51.936;4.788;2023-03-03T11:49:04;102709.19;;;7.14;78.99
47220;BME280;32961;51.936;4.788;2023-03-03T11:51:43;102710.47;;;7.07;78.08
47220;BME280;32961;51.936;4.788;2023-03-03T11:54:18;102712.00;;;7.13;79.15
47220;BME280;32961;51.936;4.788;2023-03-03T11:56:50;102710.31;;;7.10;77.43
47220;BME280;32961;51.936;4.788;2023-03-03T11:59:36;102709.19;;;7.14;77.39
47220;BME280;32961;51.936;4.788;2023-03-03T12:02:22;102708.34;;;7.14;76.08
47220;BME280;32961;51.936;4.788;2023-03-03T12:04:53;102704.53;;;7.18;74.79
47220;BME280;32961;51.936;4.788;2023-03-03T12:07:29;102707.72;;;7.26;74.77
47220;BME280;32961;51.936;4.788;2023-03-03T12:10:07;102695.28;;;7.22;72.58
47220;BME280;32961;51.936;4.788;2023-03-03T12:12:44;102698.91;;;7.40;72.13
47220;BME280;32961;51.936;4.788;2023-03-03T12:15:21;102690.63;;;7.61;72.04
47220;BME280;32961;51.936;4.788;2023-03-03T12:18:09;102690.13;;;7.70;71.43
47220;BME280;32961;51.936;4.788;2023-03-03T12:20:49;102691.91;;;7.89;70.44
47220;BME280;32961;51.936;4.788;2023-03-03T12:23:45;102687.06;;;8.11;71.01
47220;BME280;32961;51.936;4.788;2023-03-03T12:26:24;102682.16;;;8.02;70.42
47220;BME280;32961;51.936;4.788;2023-03-03T12:28:59;102686.50;;;7.89;67.64
47220;BME280;32961;51.936;4.788;2023-03-03T12:31:43;102675.66;;;7.71;68.17
47220;BME280;32961;51.936;4.788;2023-03-03T12:34:17;102674.00;;;7.51;68.27
47220;BME280;32961;51.936;4.788;2023-03-03T12:37:00;102675.22;;;7.63;69.38
47220;BME280;32961;51.936;4.788;2023-03-03T12:39:41;102671.53;;;7.64;69.49
47220;BME280;32961;51.936;4.788;2023-03-03T12:42:18;102675.03;;;7.66;68.15
47220;BME280;32961;51.936;4.788;2023-03-03T12:44:57;102673.84;;;7.71;68.49
47220;BME280;32961;51.936;4.788;2023-03-03T12:47:33;102664.03;;;7.86;67.34
47220;BME280;32961;51.936;4.788;2023-03-03T12:50:24;102677.28;;;8.09;66.83
47220;BME280;32961;51.936;4.788;2023-03-03T12:53:01;102665.25;;;8.14;64.27
47220;BME280;32961;51.936;4.788;2023-03-03T12:55:45;102664.22;;;8.17;64.09
47220;BME280;32961;51.936;4.788;2023-03-03T12:58:26;102661.13;;;8.07;63.31
47220;BME280;32961;51.936;4.788;2023-03-03T13:01:09;102662.09;;;8.06;64.69
47220;BME280;32961;51.936;4.788;2023-03-03T13:03:44;102661.66;;;8.14;65.91
47220;BME280;32961;51.936;4.788;2023-03-03T13:06:26;102658.19;;;8.12;65.57
47220;BME280;32961;51.936;4.788;2023-03-03T13:09:07;102654.34;;;8.16;64.96
47220;BME280;32961;51.936;4.788;2023-03-03T13:11:48;102653.97;;;8.06;63.80
47220;BME280;32961;51.936;4.788;2023-03-03T13:14:28;102650.03;;;7.78;63.91
47220;BME280;32961;51.936;4.788;2023-03-03T13:17:08;102650.75;;;7.82;65.16
47220;BME280;32961;51.936;4.788;2023-03-03T13:19:47;102653.25;;;8.02;65.52
47220;BME280;32961;51.936;4.788;2023-03-03T13:22:28;102642.94;;;8.09;65.08
47220;BME280;32961;51.936;4.788;2023-03-03T13:25:02;102654.94;;;8.21;64.81
47220;BME280;32961;51.936;4.788;2023-03-03T13:27:37;102651.25;;;8.06;64.47
47220;BME280;32961;51.936;4.788;2023-03-03T13:30:15;102651.34;;;8.05;65.25